createdAt,value
2018-12-27T00:00:46.419Z,7.75
2018-12-27T00:05:52.924Z,8.43
2018-12-27T00:10:59.529Z,8.53
2018-12-27T00:16:05.841Z,8.28
2018-12-27T00:21:12.361Z,8.75
2018-12-27T00:26:18.747Z,8.00
2018-12-27T00:31:26.058Z,8.45
2018-12-27T00:36:35.116Z,8.28
2018-12-27T00:41:41.610Z,8.48
2018-12-27T00:46:52.910Z,9.20
2018-12-27T00:52:02.875Z,8.85
2018-12-27T00:57:13.814Z,8.93
2018-12-27T01:02:23.621Z,9.03
2018-12-27T01:07:34.644Z,8.20
2018-12-27T01:12:41.007Z,8.73
2018-12-27T01:17:47.738Z,8.95
2018-12-27T01:22:54.248Z,9.25
2018-12-27T01:28:00.522Z,9.23
2018-12-27T01:33:06.968Z,8.50
2018-12-27T01:38:13.214Z,9.15
2018-12-27T01:43:19.635Z,8.70
2018-12-27T01:48:25.950Z,8.80
2018-12-27T01:53:32.454Z,8.60
2018-12-27T01:58:39.027Z,9.00
2018-12-27T02:03:45.318Z,8.73
2018-12-27T02:08:51.669Z,9.35
2018-12-27T02:13:57.877Z,9.08
2018-12-27T02:19:04.330Z,8.73
2018-12-27T02:24:11.024Z,9.05
2018-12-27T02:29:17.416Z,8.50
2018-12-27T02:34:24.854Z,9.35
2018-12-27T02:39:31.272Z,9.08
2018-12-27T02:44:56.678Z,8.30
2018-12-27T02:50:03.171Z,8.58
2018-12-27T02:55:09.961Z,8.73
2018-12-27T03:00:16.108Z,8.55
2018-12-27T03:05:22.425Z,9.08
2018-12-27T03:10:28.864Z,8.55
2018-12-27T03:15:35.510Z,8.70
2018-12-27T03:20:41.785Z,9.30
2018-12-27T03:25:48.471Z,8.48
2018-12-27T03:30:54.859Z,9.60
2018-12-27T03:36:01.340Z,9.00
2018-12-27T03:41:07.687Z,8.60
2018-12-27T03:46:14.143Z,9.08
2018-12-27T03:51:20.577Z,9.75
2018-12-27T03:56:26.873Z,8.85
2018-12-27T04:01:33.240Z,9.05
2018-12-27T04:06:39.602Z,9.03
2018-12-27T04:11:46.060Z,8.38
2018-12-27T04:16:52.277Z,8.88
2018-12-27T04:21:58.570Z,9.28
2018-12-27T04:27:04.856Z,8.95
2018-12-27T04:32:11.174Z,8.65
2018-12-27T04:37:17.469Z,8.43
2018-12-27T04:42:23.850Z,9.38
2018-12-27T04:47:30.045Z,8.50
2018-12-27T04:52:36.340Z,9.25
2018-12-27T04:57:42.624Z,8.55
2018-12-27T05:02:49.032Z,8.43
2018-12-27T05:07:55.320Z,9.60
2018-12-27T05:13:01.746Z,9.13
2018-12-27T05:18:08.029Z,9.08
2018-12-27T05:23:14.951Z,9.23
2018-12-27T05:28:21.574Z,8.85
2018-12-27T05:33:27.767Z,8.70
2018-12-27T05:38:33.852Z,9.25
2018-12-27T05:43:40.210Z,9.20
2018-12-27T05:48:46.527Z,9.63
2018-12-27T05:53:52.822Z,8.45
2018-12-27T05:58:59.097Z,9.43
2018-12-27T06:04:05.318Z,8.95
2018-12-27T06:09:11.518Z,9.05
2018-12-27T06:14:17.949Z,9.23
2018-12-27T06:19:24.450Z,9.38
2018-12-27T06:24:31.070Z,8.75
2018-12-27T06:29:37.416Z,8.88
2018-12-27T06:34:43.718Z,9.43
2018-12-27T06:39:49.920Z,9.65
2018-12-27T06:44:56.142Z,9.33
2018-12-27T06:50:02.843Z,9.35
2018-12-27T06:55:09.406Z,9.58
2018-12-27T07:00:15.680Z,9.70
2018-12-27T07:05:21.975Z,9.65
2018-12-27T07:10:28.238Z,9.73
2018-12-27T07:15:34.746Z,9.63
2018-12-27T07:20:41.348Z,9.60
2018-12-27T07:25:47.552Z,8.95
2018-12-27T07:30:53.985Z,9.60
2018-12-27T07:36:00.162Z,9.25
2018-12-27T07:41:06.550Z,9.08
2018-12-27T07:46:12.879Z,8.90
2018-12-27T07:51:21.012Z,8.78
2018-12-27T07:56:27.442Z,9.55
2018-12-27T08:01:33.826Z,9.03
2018-12-27T08:06:40.141Z,9.30
2018-12-27T08:11:46.684Z,9.08
2018-12-27T08:16:52.948Z,9.85
2018-12-27T08:21:59.275Z,9.45
2018-12-27T08:27:05.605Z,9.33
2018-12-27T08:32:11.955Z,9.45
2018-12-27T08:37:18.234Z,9.38
2018-12-27T08:42:24.459Z,9.68
2018-12-27T08:47:30.961Z,9.33
2018-12-27T08:52:37.076Z,9.30
2018-12-27T08:57:43.424Z,9.45
2018-12-27T09:02:50.135Z,9.33
2018-12-27T09:07:56.434Z,8.88
2018-12-27T09:13:02.752Z,8.70
2018-12-27T09:18:08.936Z,9.45
2018-12-27T09:23:15.160Z,8.43
2018-12-27T09:28:21.837Z,9.55
2018-12-27T09:33:28.013Z,9.40
2018-12-27T09:38:34.669Z,9.50
2018-12-27T09:43:40.991Z,9.68
2018-12-27T09:48:47.329Z,9.45
2018-12-27T09:53:53.628Z,9.48
2018-12-27T09:58:59.701Z,9.28
2018-12-27T10:04:05.917Z,9.75
2018-12-27T10:09:12.674Z,9.95
2018-12-27T10:14:18.936Z,10.32
2018-12-27T10:19:25.283Z,10.85
2018-12-27T10:24:31.560Z,11.55
2018-12-27T10:29:37.946Z,10.63
2018-12-27T10:34:44.248Z,9.90
2018-12-27T10:39:50.769Z,9.93
2018-12-27T10:44:57.090Z,9.95
2018-12-27T10:50:03.344Z,9.98
2018-12-27T10:55:09.579Z,9.80
2018-12-27T11:00:15.720Z,9.53
2018-12-27T11:05:22.267Z,9.98
2018-12-27T11:10:28.455Z,10.03
2018-12-27T11:15:34.806Z,9.68
2018-12-27T11:20:41.320Z,9.05
2018-12-27T11:25:48.551Z,9.78
2018-12-27T11:30:54.882Z,9.18
2018-12-27T11:36:01.117Z,9.70
2018-12-27T11:41:07.295Z,9.00
2018-12-27T11:46:13.511Z,9.55
2018-12-27T11:51:20.023Z,9.80
2018-12-27T11:56:26.249Z,9.43
2018-12-27T12:01:32.409Z,9.83
2018-12-27T12:06:38.991Z,9.00
2018-12-27T12:11:45.348Z,9.35
2018-12-27T12:17:10.671Z,9.23
2018-12-27T12:22:16.985Z,9.40
2018-12-27T12:27:23.180Z,9.05
2018-12-27T12:32:29.564Z,8.78
2018-12-27T12:37:36.570Z,9.60
2018-12-27T12:42:42.885Z,11.70
2018-12-27T12:47:49.184Z,10.10
2018-12-27T12:52:55.889Z,9.43
2018-12-27T12:58:05.158Z,9.83
2018-12-27T13:03:13.892Z,8.83
2018-12-27T13:08:20.661Z,8.93
2018-12-27T13:13:26.988Z,9.65
2018-12-27T13:18:33.510Z,9.78
2018-12-27T13:23:39.789Z,9.03
2018-12-27T13:28:46.099Z,9.53
2018-12-27T13:33:52.350Z,9.58
2018-12-27T13:38:58.636Z,9.53
2018-12-27T13:44:05.059Z,9.25
2018-12-27T13:49:11.394Z,9.43
2018-12-27T13:54:17.690Z,9.55
2018-12-27T13:59:23.777Z,9.28
2018-12-27T14:04:29.895Z,9.05
2018-12-27T14:09:36.528Z,8.93
2018-12-27T14:14:42.859Z,9.10
2018-12-27T14:19:49.142Z,9.10
2018-12-27T14:24:58.004Z,9.13
2018-12-27T14:30:04.204Z,8.30
2018-12-27T14:35:10.560Z,9.33
2018-12-27T14:40:16.752Z,9.03
2018-12-27T14:45:22.929Z,8.75
2018-12-27T14:50:29.309Z,9.53
2018-12-27T14:55:35.565Z,9.25
2018-12-27T15:00:41.903Z,9.18
2018-12-27T15:05:48.235Z,8.53
2018-12-27T15:10:54.753Z,9.18
2018-12-27T15:16:01.079Z,9.00
2018-12-27T15:21:07.809Z,8.70
2018-12-27T15:26:14.070Z,9.43
2018-12-27T15:31:20.388Z,8.95
2018-12-27T15:36:27.043Z,8.80
2018-12-27T15:41:33.344Z,9.25
2018-12-27T15:46:39.745Z,9.20
2018-12-27T15:51:46.562Z,8.45
2018-12-27T15:56:53.470Z,8.85
2018-12-27T16:01:59.909Z,8.65
2018-12-27T16:07:07.759Z,8.53
2018-12-27T16:12:13.949Z,9.18
2018-12-27T16:17:20.502Z,9.65
2018-12-27T16:22:26.735Z,9.48
2018-12-27T16:27:33.160Z,10.03
2018-12-27T16:32:39.453Z,9.50
2018-12-27T16:37:45.612Z,9.70
2018-12-27T16:42:52.114Z,9.65
2018-12-27T16:47:58.466Z,9.60
2018-12-27T16:53:04.825Z,9.63
2018-12-27T16:58:11.433Z,9.90
2018-12-27T17:03:17.625Z,9.70
2018-12-27T17:08:23.992Z,9.58
2018-12-27T17:13:30.191Z,9.15
2018-12-27T17:18:36.413Z,10.05
2018-12-27T17:23:42.673Z,9.00
2018-12-27T17:28:48.974Z,9.75
2018-12-27T17:33:55.448Z,9.55
2018-12-27T17:39:01.592Z,10.13
2018-12-27T17:44:09.162Z,9.98
2018-12-27T17:49:15.266Z,10.13
2018-12-27T17:54:21.592Z,10.45
2018-12-27T17:59:27.816Z,11.25
2018-12-27T18:04:34.042Z,10.72
2018-12-27T18:09:40.218Z,10.70
2018-12-27T18:14:46.470Z,11.48
2018-12-27T18:19:52.647Z,11.22
2018-12-27T18:24:58.916Z,11.20
2018-12-27T18:30:05.758Z,11.25
2018-12-27T18:35:11.949Z,11.20
2018-12-27T18:40:18.210Z,10.53
2018-12-27T18:45:24.455Z,11.90
2018-12-27T18:50:31.039Z,11.20
2018-12-27T18:55:37.143Z,11.08
2018-12-27T19:00:43.709Z,10.48
2018-12-27T19:05:49.951Z,10.20
2018-12-27T19:11:32.174Z,10.88
2018-12-27T19:16:39.343Z,10.30
2018-12-27T19:22:36.237Z,10.30
2018-12-27T19:27:42.537Z,10.80
2018-12-27T19:32:48.976Z,9.93
2018-12-27T19:37:55.380Z,9.50
2018-12-27T19:43:01.759Z,10.10
2018-12-27T19:48:07.962Z,10.35
2018-12-27T19:53:14.213Z,9.80
2018-12-27T19:58:20.484Z,9.88
2018-12-27T20:03:26.701Z,10.05
2018-12-27T20:08:32.983Z,10.43
2018-12-27T20:13:39.270Z,10.05
2018-12-27T20:18:45.639Z,9.95
2018-12-27T20:23:53.282Z,9.18
2018-12-27T20:28:59.545Z,9.35
2018-12-27T20:34:05.721Z,9.90
2018-12-27T20:39:12.011Z,10.10
2018-12-27T20:44:18.212Z,9.53
2018-12-27T20:49:24.477Z,9.45
2018-12-27T20:54:31.046Z,10.15
2018-12-27T20:59:37.222Z,9.73
2018-12-27T21:04:43.417Z,10.08
2018-12-27T21:09:49.693Z,10.30
2018-12-27T21:14:56.103Z,10.35
2018-12-27T21:20:02.374Z,9.93
2018-12-27T21:25:08.630Z,9.63
2018-12-27T21:30:14.864Z,10.53
2018-12-27T21:35:21.155Z,10.03
2018-12-27T21:40:27.373Z,9.80
2018-12-27T21:45:33.549Z,10.32
2018-12-27T21:50:39.719Z,10.05
2018-12-27T21:55:45.820Z,10.18
2018-12-27T22:00:52.134Z,10.53
2018-12-27T22:05:58.346Z,10.18
2018-12-27T22:11:04.626Z,10.10
2018-12-27T22:16:10.943Z,10.30
2018-12-27T22:21:17.395Z,10.63
2018-12-27T22:26:23.722Z,10.15
2018-12-27T22:31:30.048Z,10.90
2018-12-27T22:36:36.326Z,10.98
2018-12-27T22:41:42.717Z,10.70
2018-12-27T22:46:48.965Z,10.25
2018-12-27T22:51:57.561Z,10.35
2018-12-27T22:57:03.793Z,10.35
2018-12-27T23:02:10.044Z,10.88
2018-12-27T23:07:16.290Z,11.18
2018-12-27T23:12:22.425Z,11.08
2018-12-27T23:17:28.625Z,10.70
2018-12-27T23:22:34.796Z,11.40
2018-12-27T23:27:40.900Z,11.83
2018-12-27T23:32:47.233Z,12.50
2018-12-27T23:37:53.323Z,12.03
2018-12-27T23:42:59.714Z,12.28
2018-12-27T23:48:05.870Z,12.15
2018-12-27T23:53:12.236Z,13.03
2018-12-27T23:58:18.586Z,12.07
